Time;durP1;ratioP1;P1;durP2;ratioP2;P2;SDS_P1;SDS_P2;PMS_P1;PMS_P2;Temp;Humidity;BMP_temperature;BMP_pressure;BME280_temperature;BME280_humidity;BME280_pressure;Samples;Min_cycle;Max_cycle;Signal;HPM_P1;HPM_P2
2023/04/07 00:01:22;;;;;;;9.87;1.53;;;6.70;99.90;;;;;;5011995;28;20226;-71
2023/04/07 00:03:48;;;;;;;7.37;1.63;;;6.60;99.90;;;;;;5011110;28;20756;-71
2023/04/07 00:06:14;;;;;;;6.60;1.57;;;6.70;99.90;;;;;;5010399;28;20186;-71
2023/04/07 00:08:40;;;;;;;3.87;1.10;;;6.70;99.90;;;;;;5012450;28;20170;-71
2023/04/07 00:11:06;;;;;;;6.43;1.57;;;6.70;99.90;;;;;;5011855;28;20174;-71
2023/04/07 00:13:31;;;;;;;9.77;1.60;;;6.70;99.90;;;;;;5012231;28;20178;-71
2023/04/07 00:15:57;;;;;;;4.90;1.50;;;6.70;99.90;;;;;;5011899;28;20604;-71
2023/04/07 00:18:22;;;;;;;6.60;1.70;;;6.50;99.90;;;;;;5011983;28;20285;-72
2023/04/07 00:20:48;;;;;;;18.83;1.83;;;6.30;99.90;;;;;;5010442;28;20187;-71
2023/04/07 00:23:14;;;;;;;6.10;1.57;;;6.50;99.90;;;;;;5011772;28;20194;-71
2023/04/07 00:25:39;;;;;;;4.83;1.50;;;6.40;99.90;;;;;;5011650;28;20260;-71
2023/04/07 00:28:05;;;;;;;5.33;1.53;;;6.30;99.90;;;;;;5011863;28;20261;-72
2023/04/07 00:30:31;;;;;;;5.83;1.20;;;6.40;99.90;;;;;;5010199;28;20187;-72
2023/04/07 00:32:56;;;;;;;4.87;1.20;;;6.60;99.90;;;;;;5011276;28;20186;-71
2023/04/07 00:35:22;;;;;;;6.80;1.60;;;6.30;99.90;;;;;;5011214;28;20677;-71
2023/04/07 00:37:47;;;;;;;4.33;1.20;;;6.30;99.90;;;;;;5011069;28;20182;-72
2023/04/07 00:40:13;;;;;;;3.40;1.13;;;6.20;99.90;;;;;;5010809;28;20183;-71
2023/04/07 00:42:39;;;;;;;4.87;1.20;;;6.20;99.90;;;;;;5012097;28;20187;-72
2023/04/07 00:45:05;;;;;;;4.23;1.30;;;6.30;99.90;;;;;;5010178;28;20178;-72
2023/04/07 00:47:31;;;;;;;8.67;1.70;;;6.20;99.90;;;;;;5010842;28;20213;-72
2023/04/07 00:49:56;;;;;;;3.73;1.30;;;6.20;99.90;;;;;;5011058;28;20174;-72
2023/04/07 00:52:27;;;;;;;3.90;1.27;;;6.20;99.90;;;;;;5010644;28;20302;-72
2023/04/07 00:54:56;;;;;;;7.20;1.43;;;6.00;99.90;;;;;;5011129;28;20191;-72
2023/04/07 00:57:22;;;;;;;5.27;1.43;;;6.10;99.90;;;;;;5011480;28;20244;-72
2023/04/07 00:59:52;;;;;;;8.30;1.53;;;6.10;99.90;;;;;;5011045;28;20701;-72
2023/04/07 01:02:41;;;;;;;9.60;1.37;;;6.10;99.90;;;;;;5007969;28;20190;-72
2023/04/07 01:05:20;;;;;;;5.30;1.40;;;6.10;99.90;;;;;;5004978;28;20178;-72
2023/04/07 01:07:59;;;;;;;5.70;1.60;;;5.80;99.90;;;;;;5008873;28;20252;-72
2023/04/07 01:10:40;;;;;;;8.80;1.60;;;6.00;99.90;;;;;;5010498;28;20175;-71
2023/04/07 01:13:17;;;;;;;6.17;1.23;;;6.00;99.90;;;;;;5010990;28;20276;-71
2023/04/07 01:15:48;;;;;;;4.60;1.07;;;6.00;99.90;;;;;;5008025;28;20206;-71
2023/04/07 01:18:21;;;;;;;3.13;1.40;;;6.00;99.90;;;;;;5010644;28;20176;-72
2023/04/07 01:20:50;;;;;;;11.60;2.00;;;6.00;99.90;;;;;;5010797;28;20178;-71
2023/04/07 01:23:38;;;;;;;6.43;1.30;;;5.90;99.90;;;;;;5010592;28;20179;-71
2023/04/07 01:26:07;;;;;;;4.37;1.20;;;5.80;99.90;;;;;;5009374;28;20185;-71
2023/04/07 01:29:10;;;;;;;6.97;1.27;;;5.80;99.90;;;;;;5010770;28;20186;-71
2023/04/07 01:31:39;;;;;;;4.43;1.43;;;5.80;99.90;;;;;;5005970;28;20240;-73
2023/04/07 01:34:08;;;;;;;3.77;1.23;;;5.90;99.90;;;;;;5007259;28;20262;-72
2023/04/07 01:36:34;;;;;;;6.47;1.40;;;5.80;99.90;;;;;;5010331;28;20218;-71
2023/04/07 01:39:00;;;;;;;8.87;1.37;;;5.60;99.90;;;;;;5010730;28;20528;-71
2023/04/07 01:41:27;;;;;;;5.80;1.50;;;5.50;99.90;;;;;;5010043;28;20186;-70
2023/04/07 01:43:54;;;;;;;4.40;1.20;;;5.60;99.90;;;;;;5010458;28;20696;-72
2023/04/07 01:46:20;;;;;;;4.80;1.40;;;5.80;99.90;;;;;;5010413;28;20316;-71
2023/04/07 01:48:48;;;;;;;7.67;1.60;;;5.70;99.90;;;;;;5010213;28;20258;-71
2023/04/07 01:51:17;;;;;;;4.17;1.17;;;5.70;99.90;;;;;;5010206;28;20221;-71
2023/04/07 01:53:45;;;;;;;4.50;1.60;;;5.70;99.90;;;;;;5010444;28;20197;-71
2023/04/07 01:56:11;;;;;;;3.73;1.10;;;5.70;99.90;;;;;;5010346;28;20210;-71
2023/04/07 01:58:36;;;;;;;7.10;1.00;;;5.70;99.90;;;;;;5009941;28;20197;-71
2023/04/07 02:01:02;;;;;;;7.47;1.33;;;5.70;99.90;;;;;;5010342;28;20178;-71
2023/04/07 02:03:42;;;;;;;7.17;1.17;;;5.80;99.90;;;;;;5010062;28;20170;-71
2023/04/07 02:06:09;;;;;;;4.33;1.27;;;5.60;99.90;;;;;;5010320;28;20192;-72
2023/04/07 02:08:38;;;;;;;8.97;1.07;;;5.60;99.90;;;;;;5010350;28;20415;-71
2023/04/07 02:11:06;;;;;;;6.90;1.13;;;5.50;99.90;;;;;;5009573;28;20677;-72
2023/04/07 02:13:34;;;;;;;4.87;1.00;;;5.70;99.90;;;;;;5008970;28;20281;-71
2023/04/07 02:16:01;;;;;;;6.70;1.23;;;5.50;99.90;;;;;;5009671;28;20280;-71
2023/04/07 02:18:29;;;;;;;1.53;0.80;;;5.90;99.90;;;;;;5009215;28;20171;-71
2023/04/07 02:20:55;;;;;;;7.87;1.37;;;5.60;99.90;;;;;;5006081;28;20680;-70
2023/04/07 02:23:21;;;;;;;6.00;0.70;;;7.10;99.90;;;;;;5008834;28;20229;-71
2023/04/07 02:25:46;;;;;;;2.83;1.13;;;5.50;99.90;;;;;;5009558;28;20182;-71
2023/04/07 02:28:12;;;;;;;3.67;1.10;;;5.40;99.90;;;;;;5009022;28;20189;-71
2023/04/07 02:30:39;;;;;;;6.77;1.23;;;5.40;99.90;;;;;;5008559;28;20261;-70
2023/04/07 02:33:04;;;;;;;8.73;0.90;;;5.40;99.90;;;;;;5001371;28;20187;-70
2023/04/07 02:35:30;;;;;;;4.07;1.33;;;5.70;99.90;;;;;;5009298;28;20622;-70
2023/04/07 02:37:56;;;;;;;4.50;0.83;;;5.30;99.90;;;;;;5009323;28;20186;-71
2023/04/07 02:40:21;;;;;;;7.50;1.23;;;5.30;99.90;;;;;;5008012;28;20198;-70
2023/04/07 02:42:47;;;;;;;6.57;0.97;;;5.30;99.90;;;;;;5002298;28;20595;-70
2023/04/07 02:45:13;;;;;;;5.77;1.00;;;5.20;99.90;;;;;;5011316;28;20650;-70
2023/04/07 02:47:39;;;;;;;6.37;1.17;;;5.40;99.90;;;;;;5007259;28;20269;-71
2023/04/07 02:50:05;;;;;;;10.40;1.40;;;5.50;99.90;;;;;;5012826;28;20178;-71
2023/04/07 02:52:30;;;;;;;5.70;1.07;;;5.20;99.90;;;;;;5011952;28;20249;-71
2023/04/07 02:54:56;;;;;;;5.93;1.07;;;5.30;99.90;;;;;;5011910;28;20269;-70
2023/04/07 02:57:22;;;;;;;5.13;1.20;;;5.40;99.90;;;;;;5012419;28;20198;-70
2023/04/07 02:59:47;;;;;;;11.90;1.33;;;5.40;99.90;;;;;;5006429;28;20190;-70
2023/04/07 03:02:13;;;;;;;6.50;1.03;;;5.30;99.90;;;;;;5012238;28;20186;-69
2023/04/07 03:04:38;;;;;;;3.03;0.90;;;5.30;99.90;;;;;;5010907;28;20190;-71
2023/04/07 03:07:04;;;;;;;5.83;1.30;;;5.40;99.90;;;;;;5012023;28;20245;-70
2023/04/07 03:09:30;;;;;;;4.17;1.13;;;5.30;99.90;;;;;;5011368;28;20185;-70
2023/04/07 03:11:55;;;;;;;5.73;1.23;;;5.50;99.90;;;;;;5011200;28;20221;-70
2023/04/07 03:14:21;;;;;;;4.87;1.40;;;5.20;99.90;;;;;;5009410;28;20295;-70
2023/04/07 03:16:47;;;;;;;6.17;1.10;;;5.00;99.90;;;;;;5011841;28;20395;-70
2023/04/07 03:19:12;;;;;;;9.07;1.30;;;5.00;99.90;;;;;;5010798;28;20175;-70
2023/04/07 03:21:38;;;;;;;4.40;1.20;;;5.10;99.90;;;;;;5011249;28;20585;-71
2023/04/07 03:24:07;;;;;;;6.37;1.03;;;5.00;99.90;;;;;;5011211;28;20186;-71
2023/04/07 03:26:33;;;;;;;2.77;0.90;;;5.00;99.90;;;;;;5011121;28;20258;-70
2023/04/07 03:28:58;;;;;;;3.63;1.20;;;5.20;99.90;;;;;;5010693;28;20261;-70
2023/04/07 03:31:24;;;;;;;4.67;1.17;;;5.20;99.90;;;;;;5010523;28;20633;-71
2023/04/07 03:33:50;;;;;;;7.23;1.40;;;5.30;99.90;;;;;;5008303;28;20185;-71
2023/04/07 03:36:19;;;;;;;4.77;1.13;;;5.10;99.90;;;;;;5007757;28;20210;-70
2023/04/07 03:38:46;;;;;;;4.87;1.50;;;5.10;99.90;;;;;;5010445;28;20551;-72
2023/04/07 03:41:12;;;;;;;6.23;1.10;;;5.10;99.90;;;;;;5009777;28;20186;-72
2023/04/07 03:43:38;;;;;;;3.13;1.10;;;5.10;99.90;;;;;;5011143;28;20232;-72
2023/04/07 03:46:04;;;;;;;7.27;1.73;;;;;;;;;;5002432;28;20698;-71
2023/04/07 03:48:30;;;;;;;6.27;1.23;;;5.00;99.90;;;;;;5011484;28;20178;-72
2023/04/07 03:50:56;;;;;;;3.30;1.00;;;;;;;;;;5008968;28;20185;-72
2023/04/07 03:53:22;;;;;;;8.60;1.17;;;4.80;99.90;;;;;;5010286;28;20531;-71
2023/04/07 03:55:47;;;;;;;6.70;1.20;;;5.00;99.90;;;;;;5008268;28;20213;-71
2023/04/07 03:58:13;;;;;;;4.40;1.40;;;4.90;99.90;;;;;;5008366;28;20264;-71
2023/04/07 04:00:39;;;;;;;5.07;1.53;;;4.90;99.90;;;;;;5010126;28;20681;-71
2023/04/07 04:03:05;;;;;;;6.50;1.33;;;4.90;99.90;;;;;;5010947;28;20171;-71
2023/04/07 04:05:30;;;;;;;4.63;1.00;;;4.80;99.90;;;;;;5010622;28;20584;-71
2023/04/07 04:07:56;;;;;;;10.83;1.67;;;5.00;99.90;;;;;;5010739;28;20214;-71
2023/04/07 04:10:22;;;;;;;9.67;1.47;;;4.80;99.90;;;;;;5010902;28;20700;-70
2023/04/07 04:12:48;;;;;;;2.20;1.50;;;5.00;99.90;;;;;;5010786;28;20171;-72
2023/04/07 04:15:14;;;;;;;6.23;1.53;;;4.80;99.90;;;;;;5010465;28;20198;-70
2023/04/07 04:17:40;;;;;;;8.20;1.50;;;4.80;99.90;;;;;;5009394;28;20194;-71
2023/04/07 04:20:07;;;;;;;4.27;1.20;;;4.70;99.90;;;;;;5010915;28;20178;-70
2023/04/07 04:22:33;;;;;;;7.70;1.37;;;4.70;99.90;;;;;;5011773;28;20170;-70
2023/04/07 04:25:00;;;;;;;6.60;1.90;;;4.60;99.90;;;;;;5010537;28;20182;-70
2023/04/07 04:27:25;;;;;;;6.47;1.40;;;4.60;99.90;;;;;;5010917;28;20186;-72
2023/04/07 04:29:52;;;;;;;6.50;1.20;;;4.60;99.90;;;;;;5012286;28;20537;-71
2023/04/07 04:32:18;;;;;;;4.33;1.50;;;4.80;99.90;;;;;;5010314;28;20182;-72
2023/04/07 04:34:44;;;;;;;8.90;1.53;;;4.20;99.90;;;;;;5011473;28;20732;-71
2023/04/07 04:37:10;;;;;;;6.97;1.40;;;4.60;99.90;;;;;;5010617;28;20677;-71
2023/04/07 04:39:36;;;;;;;9.13;1.40;;;4.40;99.90;;;;;;5010831;28;20193;-71
2023/04/07 04:42:03;;;;;;;5.80;1.30;;;4.40;99.90;;;;;;5009864;28;20651;-70
2023/04/07 04:44:29;;;;;;;5.33;1.50;;;4.50;99.90;;;;;;5009282;28;20242;-70
2023/04/07 04:46:55;;;;;;;6.90;1.20;;;5.00;99.90;;;;;;5011272;28;20216;-70
2023/04/07 04:49:21;;;;;;;4.23;1.20;;;4.50;99.90;;;;;;5008929;28;20175;-70
2023/04/07 04:51:47;;;;;;;8.30;1.30;;;4.50;99.90;;;;;;5010034;28;20643;-69
2023/04/07 04:54:12;;;;;;;13.87;1.10;;;4.50;99.90;;;;;;5010397;28;20271;-72
2023/04/07 04:56:38;;;;;;;4.90;1.20;;;4.40;99.90;;;;;;5010166;28;20214;-71
2023/04/07 04:59:04;;;;;;;5.17;1.33;;;4.30;99.90;;;;;;5010012;28;20744;-71
2023/04/07 05:01:30;;;;;;;8.67;1.57;;;4.00;99.90;;;;;;5011029;28;20191;-70
2023/04/07 05:03:55;;;;;;;2.57;1.30;;;4.20;99.90;;;;;;5009932;28;20229;-71
2023/04/07 05:06:21;;;;;;;11.07;1.13;;;4.10;99.90;;;;;;5008550;28;20174;-71
2023/04/07 05:08:47;;;;;;;4.50;1.20;;;4.20;99.90;;;;;;5008306;28;20192;-71
2023/04/07 05:11:13;;;;;;;5.97;1.30;;;4.30;99.90;;;;;;5004089;28;20636;-71
2023/04/07 05:13:39;;;;;;;7.90;1.60;;;4.30;99.90;;;;;;5009603;28;20602;-70
2023/04/07 05:16:05;;;;;;;2.27;1.20;;;4.20;99.90;;;;;;5009869;28;20669;-70
2023/04/07 05:18:31;;;;;;;4.33;1.40;;;4.10;99.90;;;;;;5009706;28;20644;-71
2023/04/07 05:20:57;;;;;;;8.37;1.50;;;4.10;99.90;;;;;;5008775;28;20182;-72
2023/04/07 05:23:22;;;;;;;2.77;1.10;;;4.10;99.90;;;;;;5008669;28;20214;-71
2023/04/07 05:25:48;;;;;;;7.00;1.50;;;3.70;99.90;;;;;;5010090;28;20237;-70
2023/04/07 05:28:14;;;;;;;8.77;1.30;;;3.90;99.90;;;;;;5009433;28;20205;-71
2023/04/07 05:30:39;;;;;;;3.47;1.20;;;4.40;99.90;;;;;;5010490;28;20629;-72
2023/04/07 05:33:05;;;;;;;11.17;1.70;;;4.40;99.90;;;;;;5008947;28;20266;-71
2023/04/07 05:35:31;;;;;;;5.90;1.33;;;4.20;99.90;;;;;;5009734;28;20272;-70
2023/04/07 05:37:56;;;;;;;1.70;1.13;;;4.30;99.90;;;;;;5009362;28;20195;-71
2023/04/07 05:40:23;;;;;;;7.97;1.37;;;4.30;99.90;;;;;;5010624;28;20549;-70
2023/04/07 05:42:49;;;;;;;5.67;1.40;;;4.20;99.90;;;;;;5010426;28;20190;-70
2023/04/07 05:45:15;;;;;;;3.93;1.47;;;;;;;;;;5010482;28;20261;-69
2023/04/07 05:47:40;;;;;;;4.57;1.60;;;4.30;99.90;;;;;;5009044;28;20645;-69
2023/04/07 05:50:06;;;;;;;8.53;1.57;;;4.30;99.90;;;;;;5009876;28;20265;-71
2023/04/07 05:52:32;;;;;;;5.93;1.70;;;4.30;99.90;;;;;;5009609;28;20387;-70
2023/04/07 05:54:58;;;;;;;7.13;1.10;;;4.30;99.90;;;;;;5010187;28;20218;-70
2023/04/07 05:57:26;;;;;;;7.80;1.63;;;4.20;99.90;;;;;;5009210;28;20728;-70
2023/04/07 05:59:51;;;;;;;5.00;1.63;;;4.20;99.90;;;;;;5009395;28;20638;-69
2023/04/07 06:02:17;;;;;;;9.57;1.60;;;4.20;99.90;;;;;;5008622;28;20198;-70
2023/04/07 06:04:43;;;;;;;3.77;1.40;;;4.20;99.90;;;;;;5009059;28;20178;-70
2023/04/07 06:07:08;;;;;;;3.20;1.17;;;4.30;99.90;;;;;;5009714;28;20179;-70
2023/04/07 06:09:34;;;;;;;9.73;1.60;;;4.60;99.90;;;;;;5008832;28;20221;-70
2023/04/07 06:12:00;;;;;;;9.47;1.57;;;4.40;99.90;;;;;;5008831;28;20170;-69
2023/04/07 06:14:26;;;;;;;2.27;1.13;;;4.30;99.90;;;;;;5010025;28;20281;-70
2023/04/07 06:16:51;;;;;;;7.20;1.77;;;4.90;99.90;;;;;;5010413;28;20289;-72
2023/04/07 06:19:17;;;;;;;6.50;1.60;;;4.60;99.90;;;;;;5012970;28;20182;-75
2023/04/07 06:21:42;;;;;;;9.30;1.87;;;4.70;99.90;;;;;;5014107;28;20696;-74
2023/04/07 06:24:08;;;;;;;10.83;1.83;;;4.60;99.90;;;;;;5012253;28;20182;-75
2023/04/07 06:26:34;;;;;;;6.73;1.60;;;4.70;99.90;;;;;;5013565;28;20884;-75
2023/04/07 06:29:00;;;;;;;8.73;1.77;;;4.70;99.90;;;;;;5014142;28;20178;-75
2023/04/07 06:31:27;;;;;;;5.70;1.90;;;4.70;99.90;;;;;;5013913;28;20190;-74
2023/04/07 06:33:52;;;;;;;9.13;1.67;;;4.70;99.90;;;;;;5006341;28;20634;-73
2023/04/07 06:36:18;;;;;;;5.87;1.70;;;4.80;99.90;;;;;;5013315;28;20214;-74
2023/04/07 06:38:44;;;;;;;5.37;1.63;;;4.70;99.90;;;;;;5013576;28;20280;-76
2023/04/07 06:41:15;;;;;;;6.07;1.80;;;5.00;99.90;;;;;;5011232;28;20961;-75
2023/04/07 06:43:42;;;;;;;7.40;1.97;;;5.00;99.90;;;;;;5012766;28;20174;-74
2023/04/07 06:46:08;;;;;;;6.43;1.70;;;5.00;99.90;;;;;;5013619;28;20209;-74
2023/04/07 06:48:34;;;;;;;5.23;1.83;;;5.10;99.90;;;;;;5012143;28;20182;-75
2023/04/07 06:50:59;;;;;;;6.97;2.00;;;5.10;99.90;;;;;;5013102;28;20225;-70
2023/04/07 06:53:25;;;;;;;9.30;1.97;;;5.20;99.90;;;;;;5013209;28;20664;-72
2023/04/07 06:55:51;;;;;;;9.50;1.93;;;5.40;99.90;;;;;;5013088;28;20222;-73
2023/04/07 06:58:16;;;;;;;6.33;2.03;;;5.40;99.90;;;;;;5013281;28;20179;-74
2023/04/07 07:00:42;;;;;;;4.50;1.97;;;5.30;99.90;;;;;;5012523;28;20185;-75
2023/04/07 07:03:07;;;;;;;8.27;2.10;;;6.80;99.90;;;;;;5011578;28;20189;-75
2023/04/07 07:05:33;;;;;;;6.03;2.17;;;5.50;99.90;;;;;;5012400;28;20175;-74
2023/04/07 07:07:59;;;;;;;4.80;2.20;;;5.60;99.90;;;;;;5011348;28;20175;-74
2023/04/07 07:10:24;;;;;;;7.47;2.17;;;5.90;99.90;;;;;;5010008;28;20736;-75
2023/04/07 07:12:50;;;;;;;7.00;2.23;;;5.80;99.90;;;;;;5012185;28;20186;-75
2023/04/07 07:15:17;;;;;;;5.97;1.87;;;6.00;99.90;;;;;;5012185;28;20672;-73
2023/04/07 07:17:42;;;;;;;9.90;2.80;;;6.10;99.90;;;;;;5012618;28;20190;-76
2023/04/07 07:20:09;;;;;;;8.10;2.03;;;6.10;99.90;;;;;;5012905;28;20189;-76
2023/04/07 07:22:34;;;;;;;6.60;2.30;;;6.20;99.90;;;;;;5013456;28;20193;-76
2023/04/07 07:25:00;;;;;;;6.87;1.90;;;6.30;99.90;;;;;;5011786;28;20175;-77
2023/04/07 07:27:26;;;;;;;5.70;2.10;;;6.40;99.90;;;;;;5012058;28;20202;-76
2023/04/07 07:29:51;;;;;;;8.70;1.90;;;6.60;99.90;;;;;;5011950;28;20649;-75
2023/04/07 07:32:17;;;;;;;7.73;2.30;;;6.60;99.90;;;;;;5013092;28;20178;-75
2023/04/07 07:34:42;;;;;;;10.33;2.50;;;6.70;99.90;;;;;;5011613;28;20619;-75
2023/04/07 07:37:08;;;;;;;9.50;2.40;;;6.80;99.90;;;;;;5008720;28;20692;-75
2023/04/07 07:39:34;;;;;;;8.23;2.33;;;7.90;99.90;;;;;;5011927;28;20179;-75
2023/04/07 07:42:00;;;;;;;7.03;2.03;;;7.00;99.90;;;;;;5011313;28;20301;-73
2023/04/07 07:44:26;;;;;;;8.73;2.20;;;7.10;99.90;;;;;;5009498;28;20558;-75
2023/04/07 07:46:51;;;;;;;9.60;2.40;;;7.30;99.90;;;;;;5012615;28;20639;-74
2023/04/07 07:49:17;;;;;;;7.73;2.30;;;7.80;99.90;;;;;;5011913;28;20171;-74
2023/04/07 07:51:43;;;;;;;6.73;2.70;;;7.50;99.90;;;;;;5011660;28;20241;-75
2023/04/07 07:54:08;;;;;;;6.20;2.70;;;7.60;99.90;;;;;;5012322;28;20182;-74
2023/04/07 07:56:34;;;;;;;11.40;3.03;;;;;;;;;;5012136;28;20245;-80
2023/04/07 07:59:00;;;;;;;8.97;2.63;;;8.00;99.90;;;;;;5012178;28;20237;-71
2023/04/07 08:01:26;;;;;;;5.87;2.53;;;8.00;99.90;;;;;;5009925;28;20221;-74
2023/04/07 08:03:52;;;;;;;7.63;1.90;;;8.20;99.90;;;;;;5011530;28;20187;-73
2023/04/07 08:06:17;;;;;;;8.83;1.40;;;8.30;99.90;;;;;;5010802;28;20186;-72
2023/04/07 08:08:43;;;;;;;4.87;0.83;;;8.50;99.90;;;;;;5011089;28;20190;-72
2023/04/07 08:11:09;;;;;;;7.00;1.20;;;8.70;99.90;;;;;;5011701;28;20189;-72
2023/04/07 08:13:34;;;;;;;2.77;1.17;;;9.00;99.90;;;;;;5010750;28;20189;-74
2023/04/07 08:16:00;;;;;;;5.20;1.30;;;10.30;99.90;;;;;;5017270;28;20228;-73
2023/04/07 08:18:26;;;;;;;4.33;1.30;;;13.40;99.90;;;;;;5011861;28;20190;-72
2023/04/07 08:20:51;;;;;;;4.72;1.10;;;14.80;99.90;;;;;;5012290;28;20240;-73
2023/04/07 08:23:17;;;;;;;20.10;1.67;;;14.70;99.90;;;;;;5011576;28;20688;-73
2023/04/07 08:25:43;;;;;;;8.65;1.63;;;15.40;99.90;;;;;;5011758;28;20185;-73
2023/04/07 08:28:09;;;;;;;8.77;1.40;;;15.50;99.90;;;;;;5007782;28;20183;-73
2023/04/07 08:30:34;;;;;;;4.47;1.10;;;16.20;99.90;;;;;;5011267;28;20249;-74
2023/04/07 08:33:00;;;;;;;5.22;1.33;;;16.40;99.90;;;;;;5010889;28;20640;-73
2023/04/07 08:35:26;;;;;;;4.22;1.23;;;17.00;99.90;;;;;;5010097;28;20662;-74
2023/04/07 08:37:52;;;;;;;6.65;1.42;;;;;;;;;;5009632;28;20247;-74
2023/04/07 08:40:17;;;;;;;5.70;1.35;;;17.90;99.90;;;;;;5010462;28;20564;-75
2023/04/07 08:42:47;;;;;;;6.80;1.05;;;17.20;99.90;;;;;;5011161;28;20181;-75
2023/04/07 08:45:15;;;;;;;8.18;1.33;;;18.40;99.90;;;;;;5009544;28;20178;-75
2023/04/07 08:47:42;;;;;;;7.13;1.48;;;18.00;99.90;;;;;;5009571;28;20269;-75
2023/04/07 08:50:10;;;;;;;7.30;1.42;;;18.00;99.90;;;;;;5017899;28;20290;-75
2023/04/07 08:52:55;;;;;;;6.78;1.30;;;18.30;99.90;;;;;;5010005;28;20248;-76
2023/04/07 08:55:21;;;;;;;6.38;1.30;;;18.80;99.90;;;;;;5009673;28;20182;-79
2023/04/07 08:57:47;;;;;;;4.72;1.02;;;18.00;99.90;;;;;;5009841;28;20194;-79
2023/04/07 09:00:14;;;;;;;6.43;1.45;;;18.60;99.90;;;;;;5010483;28;20239;-79
2023/04/07 09:02:47;;;;;;;8.38;1.42;;;18.50;99.90;;;;;;5001637;28;20175;-79
2023/04/07 09:05:13;;;;;;;4.95;1.40;;;18.70;99.90;;;;;;5010167;28;20719;-80
2023/04/07 09:07:39;;;;;;;6.18;1.35;;;19.40;99.90;;;;;;5011322;28;20183;-80
2023/04/07 09:10:06;;;;;;;8.50;1.50;;;19.10;99.90;;;;;;5011517;28;20645;-76
2023/04/07 09:12:32;;;;;;;7.60;1.30;;;18.90;99.90;;;;;;5011164;28;20197;-78
2023/04/07 09:14:59;;;;;;;5.18;1.20;;;19.00;99.90;;;;;;4990183;28;20321;-78
2023/04/07 09:17:28;;;;;;;7.93;1.50;;;18.00;99.90;;;;;;5010762;28;20206;-78
2023/04/07 09:20:00;;;;;;;5.07;1.45;;;17.60;99.90;;;;;;5010657;28;20174;-78
2023/04/07 09:22:46;;;;;;;7.55;1.55;;;17.10;99.90;;;;;;5009164;28;20181;-78
2023/04/07 09:25:25;;;;;;;7.43;1.40;;;17.50;99.90;;;;;;5008087;28;20588;-78
2023/04/07 09:27:56;;;;;;;5.88;1.23;;;18.40;99.90;;;;;;5010393;28;20181;-78
2023/04/07 09:30:22;;;;;;;6.30;1.50;;;19.50;99.90;;;;;;5010721;28;20174;-77
2023/04/07 09:32:48;;;;;;;6.18;1.33;;;20.20;99.90;;;;;;5010162;28;20182;-77
2023/04/07 09:35:14;;;;;;;6.97;1.50;;;20.50;99.90;;;;;;5008745;28;20712;-78
2023/04/07 09:37:41;;;;;;;5.68;1.40;;;20.40;99.90;;;;;;5010682;28;20256;-77
2023/04/07 09:40:07;;;;;;;5.30;1.30;;;20.20;99.90;;;;;;5010585;28;20716;-78
2023/04/07 09:42:35;;;;;;;7.88;1.08;;;20.20;99.90;;;;;;5010902;28;20262;-77
2023/04/07 09:45:02;;;;;;;4.85;1.20;;;20.50;99.90;;;;;;5010575;28;20182;-78
2023/04/07 09:47:29;;;;;;;5.55;1.30;;;20.70;99.90;;;;;;5010651;28;20654;-77
2023/04/07 09:49:56;;;;;;;10.13;1.50;;;21.40;99.90;;;;;;5010360;28;20265;-78
2023/04/07 09:52:45;;;;;;;4.65;1.23;;;21.10;99.90;;;;;;5010577;28;20241;-79
2023/04/07 09:55:11;;;;;;;5.57;1.48;;;21.50;99.90;;;;;;5010330;28;20186;-78
2023/04/07 09:57:38;;;;;;;5.40;1.65;;;21.10;99.90;;;;;;5010441;28;20276;-78
2023/04/07 10:00:04;;;;;;;5.95;1.58;;;21.40;99.90;;;;;;5010302;28;20183;-77
2023/04/07 10:02:31;;;;;;;6.72;1.38;;;21.70;99.90;;;;;;5010520;28;20187;-77
2023/04/07 10:04:58;;;;;;;5.40;1.83;;;21.80;99.90;;;;;;5010273;28;20183;-77
2023/04/07 10:07:24;;;;;;;5.45;1.35;;;21.40;99.90;;;;;;5010716;28;20194;-77
2023/04/07 10:09:50;;;;;;;6.03;1.20;;;22.20;99.90;;;;;;5008979;28;20182;-78
2023/04/07 10:12:17;;;;;;;4.68;1.50;;;22.30;99.90;;;;;;5009501;28;20217;-78
2023/04/07 10:14:45;;;;;;;7.60;1.45;;;21.80;99.90;;;;;;5010349;28;20232;-77
2023/04/07 10:17:17;;;;;;;4.82;1.20;;;22.50;99.90;;;;;;5010244;28;20206;-78
2023/04/07 10:19:44;;;;;;;5.70;1.42;;;22.20;99.90;;;;;;5010550;28;20173;-78
2023/04/07 10:22:10;;;;;;;6.30;1.40;;;22.40;99.90;;;;;;5010173;28;20214;-78
2023/04/07 10:24:59;;;;;;;9.95;1.48;;;22.70;99.90;;;;;;5010605;28;20269;-78
2023/04/07 10:27:51;;;;;;;9.48;1.60;;;22.80;99.90;;;;;;5010472;28;20173;-77
2023/04/07 10:30:31;;;;;;;5.90;1.23;;;22.60;99.90;;;;;;5010320;28;20201;-78
2023/04/07 10:32:57;;;;;;;4.85;1.30;;;22.80;99.90;;;;;;5002565;28;20256;-77
2023/04/07 10:35:23;;;;;;;5.72;1.40;;;23.30;99.90;;;;;;5010003;28;20174;-76
2023/04/07 10:38:07;;;;;;;6.68;1.30;;;22.60;99.90;;;;;;5010345;28;20190;-77
2023/04/07 10:40:34;;;;;;;5.97;1.65;;;22.40;99.90;;;;;;5010251;28;20211;-78
2023/04/07 10:43:00;;;;;;;3.85;1.20;;;22.20;99.90;;;;;;5002289;28;20269;-78
2023/04/07 10:45:45;;;;;;;4.70;1.02;;;21.70;99.90;;;;;;5008821;28;20717;-77
2023/04/07 10:48:12;;;;;;;5.10;1.17;;;21.60;99.90;;;;;;5003490;28;20687;-78
2023/04/07 10:50:38;;;;;;;7.88;1.40;;;21.70;93.90;;;;;;5010058;28;20182;-78
2023/04/07 10:53:08;;;;;;;6.68;1.48;;;22.10;96.30;;;;;;5002288;28;20196;-77
2023/04/07 10:55:42;;;;;;;5.75;1.10;;;22.70;92.70;;;;;;5010073;28;20230;-78
2023/04/07 10:58:29;;;;;;;5.22;1.30;;;22.60;92.00;;;;;;5003781;28;20183;-77
2023/04/07 11:01:13;;;;;;;5.40;0.90;;;22.30;77.10;;;;;;5010464;28;20183;-78
2023/04/07 11:03:41;;;;;;;2.90;0.90;;;22.20;53.90;;;;;;5010521;28;20186;-77
2023/04/07 11:06:11;;;;;;;6.30;1.10;;;21.60;68.10;;;;;;5013889;28;20182;-77
2023/04/07 11:08:43;;;;;;;3.10;0.80;;;22.10;61.30;;;;;;5013378;28;20182;-77
2023/04/07 11:11:11;;;;;;;5.50;0.88;;;23.30;53.80;;;;;;5013626;28;20193;-78
2023/04/07 11:13:47;;;;;;;7.38;1.50;;;23.60;50.20;;;;;;5013301;28;20332;-77
2023/04/07 11:16:17;;;;;;;4.45;1.23;;;23.30;46.60;;;;;;5013808;28;20229;-77
2023/04/07 11:18:47;;;;;;;3.65;1.20;;;24.00;27.60;;;;;;5013101;28;20189;-78
2023/04/07 11:21:17;;;;;;;6.35;1.35;;;22.80;20.30;;;;;;5013457;28;20239;-77
2023/04/07 11:23:44;;;;;;;5.43;1.35;;;22.80;15.00;;;;;;5013065;28;20178;-77
2023/04/07 11:26:12;;;;;;;5.20;1.20;;;23.10;12.60;;;;;;5013554;28;20667;-77
2023/04/07 11:28:45;;;;;;;7.22;1.60;;;23.30;3.40;;;;;;5013192;28;20184;-76
2023/04/07 11:31:11;;;;;;;4.72;1.10;;;22.00;3.00;;;;;;5010421;28;20728;-78
2023/04/07 11:33:39;;;;;;;6.70;1.50;;;23.20;5.10;;;;;;5012241;28;20269;-76
2023/04/07 11:36:06;;;;;;;6.30;1.42;;;23.50;11.50;;;;;;5011896;28;20206;-78
2023/04/07 11:38:36;;;;;;;7.10;1.38;;;24.10;7.00;;;;;;5008126;28;20807;-78
2023/04/07 11:41:12;;;;;;;4.60;1.10;;;24.50;5.20;;;;;;5011893;28;20178;-78
2023/04/07 11:43:40;;;;;;;4.63;1.35;;;24.80;1.00;;;;;;5012228;28;20182;-78
2023/04/07 11:46:09;;;;;;;6.30;2.40;;;24.80;1.00;;;;;;5011753;28;20182;-78
2023/04/07 11:48:36;;;;;;;3.42;1.25;;;25.00;1.00;;;;;;5011217;28;20198;-77
2023/04/07 11:51:03;;;;;;;3.53;1.10;;;23.80;1.00;;;;;;5011994;28;20202;-76
2023/04/07 11:53:33;;;;;;;3.53;0.80;;;24.40;1.00;;;;;;5011976;28;20186;-77
2023/04/07 11:56:11;;;;;;;2.45;0.80;;;25.10;1.00;;;;;;5011574;28;20700;-77
2023/04/07 11:58:37;;;;;;;4.95;1.50;;;24.40;1.00;;;;;;5010635;28;20192;-77
2023/04/07 12:01:08;;;;;;;3.53;1.20;;;24.50;1.00;;;;;;5012448;28;20193;-78
2023/04/07 12:03:37;;;;;;;3.75;1.10;;;24.50;1.00;;;;;;5011559;28;20189;-78
2023/04/07 12:06:03;;;;;;;1.75;0.80;;;24.80;1.00;;;;;;5010895;28;20204;-77
2023/04/07 12:08:43;;;;;;;2.83;0.63;;;25.60;1.00;;;;;;5011983;28;20181;-76
2023/04/07 12:11:09;;;;;;;2.15;0.80;;;25.60;1.00;;;;;;5011938;28;20193;-77
2023/04/07 12:13:36;;;;;;;3.13;1.15;;;26.00;1.00;;;;;;5011848;28;20174;-76
2023/04/07 12:16:02;;;;;;;2.60;0.90;;;25.50;1.00;;;;;;5010942;28;20252;-74
2023/04/07 12:18:28;;;;;;;2.88;0.75;;;25.20;1.00;;;;;;5007203;28;20175;-75
2023/04/07 12:20:56;;;;;;;2.85;0.98;;;25.40;1.00;;;;;;5010601;28;20192;-74
2023/04/07 12:23:22;;;;;;;1.98;0.60;;;25.30;1.00;;;;;;5003425;28;20181;-74
2023/04/07 12:25:47;;;;;;;3.70;0.82;;;25.10;1.00;;;;;;5011506;28;20537;-73
2023/04/07 12:28:13;;;;;;;4.13;0.80;;;25.90;1.00;;;;;;5011917;28;20267;-73
2023/04/07 12:30:39;;;;;;;3.28;0.93;;;26.30;1.00;;;;;;5009658;28;20217;-74
2023/04/07 12:33:05;;;;;;;2.60;0.73;;;26.10;1.00;;;;;;5009935;28;20178;-73
2023/04/07 12:35:31;;;;;;;4.38;0.98;;;26.20;1.00;;;;;;5010044;28;20166;-74
2023/04/07 12:37:56;;;;;;;2.92;0.80;;;26.10;1.00;;;;;;5011826;28;20189;-73
2023/04/07 12:40:23;;;;;;;0.73;0.38;;;25.90;1.00;;;;;;5011364;28;20331;-74
2023/04/07 12:42:49;;;;;;;1.58;0.60;;;26.00;1.00;;;;;;5010615;28;20625;-75
2023/04/07 12:45:14;;;;;;;1.90;0.65;;;26.40;1.00;;;;;;5011371;28;20185;-73
2023/04/07 12:47:41;;;;;;;2.28;0.60;;;26.60;1.00;;;;;;5009300;28;20268;-73
2023/04/07 12:50:07;;;;;;;3.10;0.70;;;26.50;1.00;;;;;;5010486;28;20170;-75
2023/04/07 12:52:32;;;;;;;1.40;0.55;;;25.00;1.00;;;;;;5009117;28;20229;-73
2023/04/07 12:54:58;;;;;;;1.40;0.60;;;25.80;1.00;;;;;;5010895;28;20182;-74
2023/04/07 12:57:24;;;;;;;3.20;0.70;;;23.30;1.00;;;;;;5008232;28;20209;-75